createdAt,value
2023-01-19T00:00:16.202Z,20.58
2023-01-19T00:01:16.191Z,20.58
2023-01-19T00:02:16.245Z,20.59
2023-01-19T00:03:16.486Z,20.59
2023-01-19T00:04:16.336Z,20.59
2023-01-19T00:05:16.383Z,20.60
2023-01-19T00:06:16.628Z,20.60
2023-01-19T00:07:16.485Z,20.61
2023-01-19T00:08:16.559Z,20.60
2023-01-19T00:09:16.591Z,20.60
2023-01-19T00:10:16.633Z,20.59
2023-01-19T00:11:16.676Z,20.59
2023-01-19T00:12:16.729Z,20.57
2023-01-19T00:13:16.887Z,20.57
2023-01-19T00:14:16.820Z,20.58
2023-01-19T00:15:16.880Z,20.58
2023-01-19T00:16:16.944Z,20.58
2023-01-19T00:17:16.978Z,20.60
2023-01-19T00:18:17.032Z,20.60
2023-01-19T00:19:17.084Z,20.60
2023-01-19T00:20:17.210Z,20.60
2023-01-19T00:21:17.185Z,20.60
2023-01-19T00:22:17.237Z,20.60
2023-01-19T00:23:17.294Z,20.59
2023-01-19T00:24:18.096Z,20.60
2023-01-19T00:25:17.446Z,20.59
2023-01-19T00:26:17.606Z,20.60
2023-01-19T00:27:17.499Z,20.59
2023-01-19T00:28:17.549Z,20.59
2023-01-19T00:29:17.600Z,20.59
2023-01-19T00:30:17.648Z,20.60
2023-01-19T00:31:17.698Z,20.60
2023-01-19T00:32:17.780Z,20.59
2023-01-19T00:33:17.798Z,20.59
2023-01-19T00:34:17.853Z,20.58
2023-01-19T00:35:17.898Z,20.58
2023-01-19T00:36:18.098Z,20.57
2023-01-19T00:37:18.015Z,20.56
2023-01-19T00:38:18.074Z,20.56
2023-01-19T00:39:18.197Z,20.56
2023-01-19T00:40:18.217Z,20.57
2023-01-19T00:41:18.232Z,20.58
2023-01-19T00:42:18.260Z,20.58
2023-01-19T00:43:18.306Z,20.59
2023-01-19T00:44:18.358Z,20.59
2023-01-19T00:45:18.411Z,20.60
2023-01-19T00:46:18.456Z,20.60
2023-01-19T00:47:18.504Z,20.59
2023-01-19T00:48:18.562Z,20.60
2023-01-19T00:49:18.589Z,20.60
2023-01-19T00:50:18.629Z,20.59
2023-01-19T00:51:18.686Z,20.60
2023-01-19T00:52:18.727Z,20.59
2023-01-19T00:53:18.771Z,20.58
2023-01-19T00:54:18.819Z,20.57
2023-01-19T00:55:18.868Z,20.58
2023-01-19T00:56:18.917Z,20.58
2023-01-19T00:57:18.978Z,20.58
2023-01-19T00:58:19.022Z,20.58
2023-01-19T00:59:19.086Z,20.57
2023-01-19T01:00:19.128Z,20.56
2023-01-19T01:01:19.225Z,20.56
2023-01-19T01:02:19.374Z,20.56
2023-01-19T01:03:19.280Z,20.57
2023-01-19T01:04:19.286Z,20.58
2023-01-19T01:05:19.340Z,20.58
2023-01-19T01:06:19.383Z,20.58
2023-01-19T01:07:19.429Z,20.59
2023-01-19T01:08:19.473Z,20.58
2023-01-19T01:09:20.111Z,20.58
2023-01-19T01:10:19.612Z,20.58
2023-01-19T01:11:19.539Z,20.58
2023-01-19T01:12:19.598Z,20.58
2023-01-19T01:13:21.059Z,20.58
2023-01-19T01:14:19.831Z,20.57
2023-01-19T01:15:19.867Z,20.57
2023-01-19T01:16:20.008Z,20.56
2023-01-19T01:17:19.974Z,20.55
2023-01-19T01:18:20.065Z,20.56
2023-01-19T01:19:20.604Z,20.55
2023-01-19T01:20:20.094Z,20.55
2023-01-19T02:21:22.501Z,20.54
2023-01-19T02:22:22.545Z,20.54
2023-01-19T02:23:22.601Z,20.54
2023-01-19T02:24:22.632Z,20.54
2023-01-19T02:25:22.692Z,20.53
2023-01-19T02:26:22.717Z,20.53
2023-01-19T02:27:22.778Z,20.52
2023-01-19T02:28:23.635Z,20.53
2023-01-19T02:29:22.861Z,20.53
2023-01-19T02:30:22.981Z,20.53
2023-01-19T02:32:23.017Z,20.54
2023-01-19T02:33:23.138Z,20.54
2023-01-19T02:34:23.115Z,20.55
2023-01-19T02:36:23.185Z,20.56
2023-01-19T02:37:23.231Z,20.56
2023-01-19T03:18:25.670Z,20.52
2023-01-19T03:39:25.671Z,20.52
2023-01-19T03:52:25.527Z,20.52
2023-01-19T03:53:25.643Z,20.52
2023-01-19T03:54:25.621Z,20.52
2023-01-19T03:55:25.650Z,20.52
2023-01-19T03:56:25.681Z,20.53
2023-01-19T03:57:25.695Z,20.53
2023-01-19T03:58:25.725Z,20.53
2023-01-19T03:59:25.776Z,20.54
2023-01-19T04:00:25.821Z,20.54
2023-01-19T04:01:26.772Z,20.54
2023-01-19T04:02:25.933Z,20.55
2023-01-19T04:03:25.929Z,20.55
2023-01-19T04:04:26.163Z,20.55
2023-01-19T04:05:26.081Z,20.55
2023-01-19T04:06:26.055Z,20.56
2023-01-19T04:07:26.104Z,20.56
2023-01-19T04:08:26.159Z,20.56
2023-01-19T04:09:26.180Z,20.56
2023-01-19T04:10:26.227Z,20.57
2023-01-19T04:11:27.171Z,20.56
2023-01-19T04:12:26.308Z,20.57
2023-01-19T04:13:26.344Z,20.56
2023-01-19T04:14:26.379Z,20.56
2023-01-19T04:15:26.411Z,20.56
2023-01-19T04:16:26.441Z,20.56
2023-01-19T04:17:26.521Z,20.57
2023-01-19T04:18:26.497Z,20.56
2023-01-19T04:19:26.508Z,20.57
2023-01-19T04:20:26.520Z,20.57
2023-01-19T04:21:26.566Z,20.57
2023-01-19T04:22:26.574Z,20.57
2023-01-19T04:23:26.590Z,20.57
2023-01-19T04:30:26.735Z,20.58
2023-01-19T04:31:26.754Z,20.58
2023-01-19T04:32:26.773Z,20.59
2023-01-19T06:28:29.279Z,20.67
2023-01-19T07:20:29.201Z,20.78
2023-01-19T07:21:29.505Z,20.85
2023-01-19T07:22:29.212Z,20.89
2023-01-19T07:23:29.212Z,20.93
2023-01-19T07:25:36.309Z,20.94
2023-01-19T07:27:29.767Z,20.98
2023-01-19T07:28:29.168Z,20.97
2023-01-19T07:29:29.124Z,20.92
2023-01-19T07:30:29.250Z,20.86
2023-01-19T07:31:29.172Z,20.79
2023-01-19T07:32:29.074Z,20.74
2023-01-19T07:33:29.052Z,20.65
2023-01-19T07:34:29.098Z,20.54
2023-01-19T07:35:29.015Z,20.47
2023-01-19T07:36:28.985Z,20.43
2023-01-19T07:37:29.022Z,20.39
2023-01-19T07:38:28.968Z,20.36
2023-01-19T07:39:28.924Z,20.33
2023-01-19T07:40:28.926Z,20.32
2023-01-19T07:41:28.953Z,20.29
2023-01-19T07:42:28.879Z,20.25
2023-01-19T07:43:28.861Z,20.23
2023-01-19T07:44:28.852Z,20.21
2023-01-19T07:45:28.909Z,20.24
2023-01-19T07:46:28.960Z,20.31
2023-01-19T07:47:29.737Z,20.38
2023-01-19T07:48:28.774Z,20.48
2023-01-19T07:49:28.829Z,20.56
2023-01-19T07:50:28.727Z,20.62
2023-01-19T07:51:28.702Z,20.70
2023-01-19T07:52:28.705Z,20.76
2023-01-19T07:53:28.660Z,20.81
2023-01-19T07:54:28.655Z,20.87
2023-01-19T07:55:28.645Z,20.92
2023-01-19T07:56:28.667Z,20.97
2023-01-19T07:57:28.682Z,21.01
2023-01-19T07:58:28.692Z,21.05
2023-01-19T07:59:28.683Z,21.08
2023-01-19T08:00:28.642Z,21.12
2023-01-19T08:01:28.800Z,21.14
2023-01-19T08:02:28.645Z,21.17
2023-01-19T08:03:28.672Z,21.18
2023-01-19T08:04:28.732Z,21.21
2023-01-19T08:05:28.679Z,21.23
2023-01-19T08:06:28.736Z,21.25
2023-01-19T08:07:28.767Z,21.28
2023-01-19T08:08:28.809Z,21.30
2023-01-19T08:09:28.937Z,21.32
2023-01-19T08:10:28.934Z,21.34
2023-01-19T08:11:28.888Z,21.36
2023-01-19T08:12:28.899Z,21.38
2023-01-19T08:13:28.928Z,21.41
2023-01-19T08:14:28.903Z,21.43
2023-01-19T09:10:28.615Z,21.72
2023-01-19T09:11:28.589Z,21.72
2023-01-19T09:12:28.565Z,21.74
2023-01-19T09:13:28.569Z,21.74
2023-01-19T09:14:28.577Z,21.75
2023-01-19T09:15:28.569Z,21.74
2023-01-19T09:16:28.568Z,21.74
2023-01-19T09:17:28.588Z,21.73
2023-01-19T09:18:28.607Z,21.74
2023-01-19T09:19:28.639Z,21.71
2023-01-19T09:20:28.663Z,21.69
2023-01-19T09:21:28.695Z,21.68
2023-01-19T09:22:28.779Z,21.69
2023-01-19T09:23:28.690Z,21.54
2023-01-19T09:24:28.691Z,21.31
2023-01-19T09:25:28.704Z,21.23
2023-01-19T09:26:28.695Z,21.19
2023-01-19T09:27:28.712Z,21.19
2023-01-19T09:28:28.722Z,21.22
2023-01-19T09:29:28.734Z,21.26
2023-01-19T09:30:28.733Z,21.27
2023-01-19T09:31:29.392Z,21.29
2023-01-19T09:32:28.746Z,21.31
2023-01-19T09:33:28.749Z,21.31
2023-01-19T09:34:28.739Z,21.34
2023-01-19T09:35:28.740Z,21.37
2023-01-19T09:36:29.204Z,21.38
2023-01-19T09:37:28.723Z,21.39
2023-01-19T09:38:28.719Z,21.39
2023-01-19T09:39:28.727Z,21.39
2023-01-19T09:40:28.755Z,21.40
2023-01-19T09:41:28.704Z,21.40
2023-01-19T09:42:28.708Z,21.40
2023-01-19T09:43:28.687Z,21.39
2023-01-19T09:44:28.686Z,21.38
2023-01-19T09:45:28.685Z,21.38
2023-01-19T09:46:28.698Z,21.40
2023-01-19T09:47:28.721Z,21.42
2023-01-19T09:48:28.660Z,21.44
2023-01-19T09:49:28.634Z,21.45
2023-01-19T09:50:28.635Z,21.47
2023-01-19T09:51:28.602Z,21.47
2023-01-19T09:52:28.709Z,21.50
2023-01-19T09:53:28.546Z,21.50
2023-01-19T09:54:28.625Z,21.51
2023-01-19T09:55:28.561Z,21.52
2023-01-19T09:56:28.579Z,21.53
2023-01-19T09:57:28.621Z,21.55
2023-01-19T09:58:28.664Z,21.56
2023-01-19T09:59:28.698Z,21.57
2023-01-19T10:00:28.805Z,21.58
2023-01-19T10:01:28.891Z,21.57
2023-01-19T10:02:28.855Z,21.57
2023-01-19T10:03:28.939Z,21.56
2023-01-19T10:04:28.884Z,21.51
2023-01-19T10:05:29.856Z,21.44
2023-01-19T10:06:28.941Z,21.35
2023-01-19T10:07:28.944Z,21.25
2023-01-19T10:08:28.874Z,21.16
2023-01-19T10:09:28.904Z,21.05
2023-01-19T10:10:28.947Z,20.83
2023-01-19T10:11:34.475Z,20.77
2023-01-19T10:12:29.957Z,20.75
2023-01-19T10:13:28.954Z,20.73
2023-01-19T10:14:28.936Z,20.74
2023-01-19T10:15:28.937Z,20.70
2023-01-19T10:16:28.945Z,20.64
2023-01-19T10:17:28.876Z,20.33
2023-01-19T10:18:29.795Z,20.04
2023-01-19T10:19:28.926Z,19.53
2023-01-19T10:20:28.862Z,19.46
2023-01-19T10:21:28.877Z,19.54
2023-01-19T10:22:28.875Z,19.65
2023-01-19T10:23:28.923Z,19.79
2023-01-19T10:24:28.965Z,19.94
2023-01-19T10:26:28.980Z,20.29
2023-01-19T10:27:28.979Z,20.44
2023-01-19T10:28:29.023Z,20.58
2023-01-19T10:29:29.058Z,20.68
2023-01-19T10:30:29.102Z,20.81
2023-01-19T10:31:29.196Z,20.89
2023-01-19T10:32:29.075Z,20.97
2023-01-19T10:33:29.019Z,21.05
2023-01-19T10:34:29.015Z,21.12
2023-01-19T10:35:29.040Z,21.17
2023-01-19T10:36:29.059Z,21.23
2023-01-19T10:37:29.086Z,21.29
2023-01-19T10:38:29.100Z,21.33
2023-01-19T10:39:29.178Z,21.37
2023-01-19T10:40:29.123Z,21.40
2023-01-19T10:41:29.171Z,21.43
2023-01-19T10:42:29.230Z,21.46
2023-01-19T10:43:29.147Z,21.49
2023-01-19T10:44:29.161Z,21.52
2023-01-19T10:45:29.164Z,21.54
2023-01-19T10:46:29.314Z,21.57
2023-01-19T10:47:29.084Z,21.59
2023-01-19T10:48:29.094Z,21.61
2023-01-19T10:49:29.177Z,21.63
2023-01-19T10:50:29.065Z,21.65
2023-01-19T10:51:29.011Z,21.67
2023-01-19T10:52:28.972Z,21.68
2023-01-19T10:53:28.945Z,21.69
2023-01-19T10:54:28.966Z,21.71
2023-01-19T10:55:28.899Z,21.72
2023-01-19T10:56:28.898Z,21.74
2023-01-19T10:57:28.848Z,21.75
2023-01-19T10:58:28.811Z,21.75
2023-01-19T10:59:28.792Z,21.77
2023-01-19T11:07:28.620Z,21.82
2023-01-19T11:08:28.628Z,21.83
2023-01-19T11:09:28.616Z,21.84
2023-01-19T11:10:29.308Z,21.84
2023-01-19T11:12:28.597Z,21.86
2023-01-19T11:13:28.570Z,21.86
2023-01-19T11:14:28.572Z,21.86
2023-01-19T11:15:28.552Z,21.86
2023-01-19T11:16:28.564Z,21.86
2023-01-19T11:49:29.111Z,21.63
2023-01-19T11:50:29.099Z,21.64
2023-01-19T11:51:29.092Z,21.63
2023-01-19T11:52:29.070Z,21.61
2023-01-19T11:53:29.058Z,21.61
2023-01-19T11:54:29.038Z,21.60
2023-01-19T11:55:29.008Z,21.59
2023-01-19T11:56:29.021Z,21.59
2023-01-19T11:57:28.987Z,21.58
2023-01-19T11:58:28.953Z,21.57
2023-01-19T12:21:28.594Z,21.44
2023-01-19T12:22:28.609Z,21.43
2023-01-19T12:23:28.570Z,21.43
2023-01-19T12:24:28.607Z,21.43
2023-01-19T12:25:28.552Z,21.42
2023-01-19T12:26:28.554Z,21.42
2023-01-19T12:27:28.544Z,21.42
2023-01-19T12:28:28.541Z,21.41
2023-01-19T12:29:28.538Z,21.41
2023-01-19T12:30:28.601Z,21.41
2023-01-19T12:31:28.716Z,21.40
2023-01-19T12:32:28.515Z,21.41
2023-01-19T12:33:28.507Z,21.40
2023-01-19T12:34:28.521Z,21.40
2023-01-19T12:35:28.508Z,21.40
2023-01-19T12:36:28.533Z,21.39
2023-01-19T12:37:28.502Z,21.39
2023-01-19T12:38:28.873Z,21.39
2023-01-19T12:39:28.496Z,21.38
2023-01-19T12:40:28.483Z,21.38
2023-01-19T12:41:28.486Z,21.37
2023-01-19T12:42:28.524Z,21.37
2023-01-19T12:43:28.487Z,21.37
2023-01-19T12:44:28.480Z,21.37
2023-01-19T12:45:28.559Z,21.37
2023-01-19T13:12:28.341Z,21.32
2023-01-19T13:38:06.988Z,21.29
2023-01-19T13:39:07.017Z,21.29
2023-01-19T13:40:07.040Z,21.29
2023-01-19T13:41:07.032Z,21.28
2023-01-19T13:42:07.037Z,21.29
2023-01-19T13:43:07.126Z,21.29
2023-01-19T13:44:07.070Z,21.27
2023-01-19T13:46:07.122Z,21.27
2023-01-19T13:47:07.077Z,21.26
2023-01-19T13:48:07.091Z,21.26
2023-01-19T13:49:07.103Z,21.25
2023-01-19T13:50:07.244Z,21.25
2023-01-19T13:51:07.127Z,21.23
2023-01-19T13:52:07.418Z,21.21
2023-01-19T13:53:07.164Z,21.17
2023-01-19T13:54:07.207Z,21.15
2023-01-19T13:55:07.858Z,21.13
2023-01-19T13:56:07.196Z,21.12
2023-01-19T13:57:07.208Z,21.11
2023-01-19T13:58:07.256Z,21.12
2023-01-19T13:59:07.322Z,21.12
2023-01-19T14:00:07.241Z,21.13
2023-01-19T14:01:07.249Z,21.13
2023-01-19T14:02:07.376Z,21.14
2023-01-19T14:03:07.335Z,21.13
2023-01-19T14:04:07.278Z,21.14
2023-01-19T14:05:07.296Z,21.14
2023-01-19T14:06:07.339Z,21.14
2023-01-19T14:07:07.308Z,21.14
2023-01-19T14:08:07.316Z,21.14
2023-01-19T14:09:07.335Z,21.14
2023-01-19T14:10:07.765Z,21.14
2023-01-19T14:11:07.349Z,21.14
2023-01-19T14:12:07.375Z,21.14
2023-01-19T14:13:07.381Z,21.14
2023-01-19T14:14:07.369Z,21.13
2023-01-19T14:15:08.453Z,21.13
2023-01-19T14:16:07.430Z,21.12
2023-01-19T14:17:07.413Z,21.13
2023-01-19T14:18:07.417Z,21.13
2023-01-19T14:19:07.422Z,21.12
2023-01-19T14:20:07.497Z,21.12
2023-01-19T14:21:07.463Z,21.13
2023-01-19T14:22:07.446Z,21.12
2023-01-19T14:23:07.452Z,21.12
2023-01-19T14:24:07.497Z,21.12
2023-01-19T15:02:08.592Z,21.10
2023-01-19T15:06:07.900Z,21.09
2023-01-19T19:37:15.574Z,20.71
2023-01-19T19:38:15.577Z,20.71
2023-01-19T19:39:15.608Z,20.71
2023-01-19T19:40:15.700Z,20.71
2023-01-19T19:41:15.680Z,20.70
2023-01-19T19:42:15.726Z,20.70
2023-01-19T19:43:15.772Z,20.70
2023-01-19T19:44:15.813Z,20.70
2023-01-19T19:45:15.871Z,20.70
2023-01-19T19:46:15.970Z,20.70
2023-01-19T19:47:16.018Z,20.70
2023-01-19T19:48:16.215Z,20.70
2023-01-19T19:49:16.032Z,20.70
2023-01-19T19:50:16.069Z,20.69
2023-01-19T19:51:18.983Z,20.70
2023-01-19T19:52:16.115Z,20.70
2023-01-19T19:53:16.120Z,20.69
2023-01-19T19:54:16.125Z,20.69
2023-01-19T19:55:16.167Z,20.69
2023-01-19T19:56:16.172Z,20.69
2023-01-19T19:57:16.149Z,20.69
2023-01-19T19:58:16.155Z,20.70
2023-01-19T19:59:16.180Z,20.70
2023-01-19T20:00:16.205Z,20.69
2023-01-19T20:01:16.295Z,20.69
2023-01-19T20:02:16.200Z,20.69
2023-01-19T20:03:16.197Z,20.68
2023-01-19T20:04:16.216Z,20.68
2023-01-19T20:05:16.223Z,20.68
2023-01-19T20:06:16.212Z,20.67
2023-01-19T20:07:17.933Z,20.68
2023-01-19T20:08:16.222Z,20.68
2023-01-19T20:09:16.247Z,20.68
2023-01-19T20:10:16.246Z,20.68
2023-01-19T20:11:16.260Z,20.68
2023-01-19T20:12:16.244Z,20.68
2023-01-19T20:13:16.718Z,20.67
2023-01-19T20:14:16.378Z,20.67
2023-01-19T20:15:16.273Z,20.67
2023-01-19T20:16:16.345Z,20.67
2023-01-19T20:17:16.276Z,20.67
2023-01-19T20:18:16.297Z,20.67
2023-01-19T20:19:16.314Z,20.67
2023-01-19T20:20:16.305Z,20.67
2023-01-19T20:21:16.315Z,20.67
2023-01-19T20:22:16.318Z,20.67
2023-01-19T20:23:16.317Z,20.67
2023-01-19T20:24:16.322Z,20.67
2023-01-19T20:25:16.338Z,20.67
2023-01-19T20:26:16.377Z,20.67
2023-01-19T20:27:16.423Z,20.67
2023-01-19T20:28:16.539Z,20.66
2023-01-19T20:29:16.503Z,20.67
2023-01-19T20:30:16.617Z,20.66
2023-01-19T20:31:16.615Z,20.67
2023-01-19T20:32:16.655Z,20.66
2023-01-19T20:33:16.743Z,20.66
2023-01-19T20:34:16.762Z,20.66
2023-01-19T20:35:16.797Z,20.66
2023-01-19T20:36:16.833Z,20.66
2023-01-19T20:37:17.649Z,20.65
2023-01-19T20:38:16.962Z,20.65
2023-01-19T20:39:16.978Z,20.65
2023-01-19T20:40:18.009Z,20.65
2023-01-19T20:41:17.136Z,20.65
2023-01-19T20:42:17.233Z,20.65
2023-01-19T20:43:17.169Z,20.65
2023-01-19T20:44:17.226Z,20.64
2023-01-19T20:45:17.274Z,20.64
2023-01-19T20:46:17.313Z,20.65
2023-01-19T20:47:17.375Z,20.64
2023-01-19T20:48:17.461Z,20.64
2023-01-19T20:49:17.404Z,20.63
2023-01-19T20:50:17.404Z,20.65
2023-01-19T20:51:17.481Z,20.65
2023-01-19T20:52:17.423Z,20.65
2023-01-19T20:53:17.454Z,20.65
2023-01-19T20:54:17.484Z,20.65
2023-01-19T20:55:17.475Z,20.64
2023-01-19T20:56:17.531Z,20.65
2023-01-19T20:57:17.536Z,20.63
2023-01-19T20:58:17.571Z,20.64
2023-01-19T20:59:17.605Z,20.64
2023-01-19T21:00:17.615Z,20.63
2023-01-19T21:01:17.774Z,20.63
2023-01-19T21:02:17.681Z,20.64
2023-01-19T21:03:17.664Z,20.63
2023-01-19T21:04:17.676Z,20.63
2023-01-19T21:05:17.672Z,20.64
2023-01-19T21:06:17.675Z,20.65
2023-01-19T21:07:17.696Z,20.64
2023-01-19T21:08:17.686Z,20.64
2023-01-19T21:09:17.695Z,20.63
2023-01-19T21:10:17.705Z,20.63
2023-01-19T21:11:17.719Z,20.63
2023-01-19T21:12:17.733Z,20.63
2023-01-19T21:13:17.743Z,20.63
2023-01-19T21:14:17.845Z,20.63
2023-01-19T21:15:17.814Z,20.63
2023-01-19T21:16:17.807Z,20.63
2023-01-19T21:17:17.786Z,20.63
2023-01-19T21:18:17.801Z,20.63
2023-01-19T21:19:17.835Z,20.63
2023-01-19T21:20:17.835Z,20.62
2023-01-19T21:21:29.411Z,20.62
2023-01-19T21:22:18.839Z,20.62
2023-01-19T21:23:18.731Z,20.62
2023-01-19T21:24:17.839Z,20.62
2023-01-19T21:25:17.839Z,20.62
2023-01-19T21:26:17.840Z,20.62
2023-01-19T21:27:17.845Z,20.63
2023-01-19T21:28:17.838Z,20.62
2023-01-19T21:29:17.831Z,20.62
2023-01-19T21:30:17.856Z,20.62
2023-01-19T21:31:17.846Z,20.61
2023-01-19T21:32:17.848Z,20.62
2023-01-19T21:33:17.851Z,20.61
2023-01-19T21:34:17.871Z,20.61
2023-01-19T21:35:17.854Z,20.62
2023-01-19T21:36:17.877Z,20.62
2023-01-19T21:37:17.853Z,20.61
2023-01-19T21:38:17.866Z,20.61
2023-01-19T21:39:20.745Z,20.61
2023-01-19T21:40:17.876Z,20.61
2023-01-19T21:41:17.869Z,20.61
2023-01-19T21:42:17.871Z,20.60
2023-01-19T21:43:17.878Z,20.61
2023-01-19T21:44:17.898Z,20.61
2023-01-19T21:45:17.890Z,20.61
2023-01-19T21:46:17.904Z,20.60
2023-01-19T21:47:17.900Z,20.60
2023-01-19T21:48:17.910Z,20.60
2023-01-19T21:49:17.913Z,20.60
2023-01-19T21:50:17.929Z,20.59
2023-01-19T21:51:17.932Z,20.60
2023-01-19T21:52:17.926Z,20.60
2023-01-19T21:53:18.011Z,20.60
2023-01-19T21:54:17.942Z,20.60
2023-01-19T21:55:18.010Z,20.60
2023-01-19T21:56:17.963Z,20.60
2023-01-19T21:57:17.954Z,20.59
2023-01-19T21:58:17.973Z,20.60
2023-01-19T21:59:20.227Z,20.60
2023-01-19T22:00:17.985Z,20.60
2023-01-19T22:01:18.123Z,20.60
2023-01-19T22:02:29.843Z,20.60
2023-01-19T22:03:19.214Z,20.59
2023-01-19T22:04:18.127Z,20.59
2023-01-19T22:05:18.139Z,20.59
2023-01-19T22:06:18.141Z,20.59
2023-01-19T22:07:18.147Z,20.59
2023-01-19T22:08:18.155Z,20.57
2023-01-19T22:09:18.171Z,20.58
2023-01-19T22:10:18.158Z,20.58
2023-01-19T22:11:18.166Z,20.58
2023-01-19T22:12:18.176Z,20.58
2023-01-19T22:13:18.170Z,20.58
2023-01-19T22:14:18.753Z,20.58
2023-01-19T22:15:18.189Z,20.58
2023-01-19T22:16:18.234Z,20.58
2023-01-19T22:17:18.278Z,20.59
2023-01-19T22:18:18.233Z,20.58
2023-01-19T22:19:18.235Z,20.59
2023-01-19T22:20:18.282Z,20.58
2023-01-19T22:21:18.339Z,20.59
2023-01-19T22:22:18.295Z,20.58
2023-01-19T22:23:18.289Z,20.58
2023-01-19T22:24:18.307Z,20.58
2023-01-19T22:25:18.299Z,20.58
2023-01-19T22:26:18.315Z,20.59
2023-01-19T22:27:18.388Z,20.58
2023-01-19T22:28:18.349Z,20.57
2023-01-19T22:29:18.373Z,20.57
2023-01-19T22:30:19.427Z,20.57
2023-01-19T22:31:18.601Z,20.57
2023-01-19T22:32:18.430Z,20.57
2023-01-19T22:33:18.447Z,20.57
2023-01-19T22:34:18.471Z,20.56
2023-01-19T22:35:18.502Z,20.56
2023-01-19T22:36:18.528Z,20.56
2023-01-19T22:37:18.534Z,20.57
2023-01-19T22:38:18.577Z,20.57
2023-01-19T22:39:18.602Z,20.57
2023-01-19T22:40:18.598Z,20.57
2023-01-19T22:41:18.623Z,20.57
2023-01-19T22:42:18.636Z,20.57
2023-01-19T22:43:18.642Z,20.57
2023-01-19T22:44:18.664Z,20.56
2023-01-19T22:45:18.678Z,20.56
2023-01-19T22:46:18.798Z,20.56
2023-01-19T22:47:18.726Z,20.57
2023-01-19T22:48:18.728Z,20.56
2023-01-19T22:49:18.754Z,20.56
2023-01-19T22:50:18.748Z,20.56
2023-01-19T22:51:18.764Z,20.56
2023-01-19T22:52:18.772Z,20.55
2023-01-19T22:53:18.789Z,20.56
2023-01-19T22:54:18.801Z,20.56
2023-01-19T22:55:18.823Z,20.55
2023-01-19T22:56:18.856Z,20.56
2023-01-19T22:57:18.855Z,20.56
2023-01-19T22:58:18.872Z,20.56
2023-01-19T22:59:18.885Z,20.55
2023-01-19T23:00:18.895Z,20.55
2023-01-19T23:01:18.954Z,20.55
2023-01-19T23:02:20.799Z,20.55
2023-01-19T23:03:18.940Z,20.55
2023-01-19T23:04:18.952Z,20.54
2023-01-19T23:05:18.987Z,20.55
2023-01-19T23:06:18.997Z,20.55
2023-01-19T23:07:19.062Z,20.54
2023-01-19T23:08:19.004Z,20.54
2023-01-19T23:09:19.029Z,20.54
2023-01-19T23:10:19.035Z,20.55
2023-01-19T23:11:19.048Z,20.55
2023-01-19T23:12:19.079Z,20.55
2023-01-19T23:13:19.084Z,20.54
2023-01-19T23:14:19.111Z,20.54
2023-01-19T23:15:19.120Z,20.54
2023-01-19T23:16:19.158Z,20.54
2023-01-19T23:17:19.140Z,20.54
2023-01-19T23:18:19.159Z,20.53
2023-01-19T23:19:19.194Z,20.54
2023-01-19T23:20:19.184Z,20.54
2023-01-19T23:21:19.213Z,20.54
2023-01-19T23:22:19.217Z,20.54
2023-01-19T23:23:19.226Z,20.53
2023-01-19T23:24:19.229Z,20.53
2023-01-19T23:25:19.256Z,20.53
2023-01-19T23:26:19.248Z,20.53
2023-01-19T23:27:19.272Z,20.54
2023-01-19T23:28:19.296Z,20.54
2023-01-19T23:30:19.446Z,20.53
2023-01-19T23:31:19.391Z,20.53
2023-01-19T23:32:19.356Z,20.53
2023-01-19T23:33:19.369Z,20.53
2023-01-19T23:34:19.375Z,20.53
